Espace membre
Imprimable
Etalle, 08/05/2022, BEL - Granfondo Espace Cycles
Liste des rapports > 115km - Classement
Recherche: Page: [1]
89 Entrées
 
Les réclamations ne sont plus acceptées, les résultats sont considérés comme définitifs.
RangNrNomEquipeTempsTkmMoy.Scr
1.1623LEHNEN ThomasTEAM RACEPOINT2:57:061:33 38.891
2.1707GILLES AmauryO2 TEAM2:57:181:33 38.853
3.1685WOLKOVICZ RomainO2 TEAM2:57:181:33 38.854
4.1566ARITZ QuentinCHALLENGE BICYCLIC2:57:471:33 38.755
5.1564ALLARD FrançoisENTENTE CYCLISTE DE WALLO2:58:111:34 38.667
6.1550VAN DER KEMP Remco2:58:361:34 38.579
7.1659VAN DAAL Nathan2:58:551:34 38.5012
8.1621LECLERCQ PierreENTENTE CYCLISTE DE WALLO2:58:561:34 38.5016
9.1706PETIT NicolasCHALLENGE BICYCLIC2:58:561:34 38.5017
10.1814GRIFGNEE Guillaume2:58:561:34 38.5019
11.1587DAN JonathanBRUSSELS BIG BRACKETS2:58:571:34 38.4920
12.1584CREMER SebastianRACEPOINT2:58:571:34 38.4922
13.1588DANNEMARK NicolasPEPINSTER PRIMEURS CYCLIN2:58:571:34 38.4923
14.1501BAERT MichielGRANFONDO TEAM.BE2:58:571:34 38.4924
15.1813GRIFGNEE Maxime2:58:581:34 38.4933
16.1844ROBA CedricKZLWC HEYLEN2:58:591:34 38.4935
17.1840DREEZEN SeppeCC CHEVIGNY2:58:591:34 38.4936
18.1616KOCH AntoineTEAM PEPINSTER PRIMEURS C2:58:591:34 38.4837
19.1615REUSS VirgileBRUSSELS BIG BRACKETS2:59:001:34 38.4841
20.1512RAMPEL ValentinCCCHEVIGNY2:59:011:34 38.4842
21.1504MERTENS BramGRANFONDO TEAM.BE2:59:011:34 38.4843
22.1665WEYRICH MathisSAF ZÉISSENG2:59:011:34 38.4844
23.1630MANGERS DanSAF ZÉISSENG2:59:031:34 38.4745
24.1573BOMAL JacquesFOXYWELD2:59:131:34 38.4350
25.1515DEMARCHE FlorianCC CHEVIGNY2:59:141:34 38.4351
26.1518DOVIFAT AnthonyLDA2:59:141:34 38.4352
27.1620LAMBINON ChristopheECW2:59:141:34 38.4353
28.1741MERTZ NicolasCC CHEVIGNY2:59:141:34 38.4356
29.1812VANDERTHOMMEN AxelCHALLENGE BICYCLIC2:59:141:34 38.4358
30.1743MOYEN FlorianCHALLENGE BICYCLIC2:59:141:34 38.4359
31.1701SCHUMACHER JérômeRADSPORTKLUB - EUPEN2:59:151:34 38.4360
32.1508LAURENT AxelCRABBE TOITURES - CC CHEV2:59:151:34 38.4362
33.1582CHEVALIER Jérémy2:59:151:34 38.4363
34.1634MEURENS ThomasCBM RACING TEAM2:59:151:34 38.4364
35.1574BOURS PhilippeENTENTE CYCLISTE DE WALLO2:59:151:34 38.4365
36.1838DEBRY Romain2:59:211:34 38.4169
37.1842BOSARD Gaylord2:59:331:34 38.3670
38.1658TRUJILLO RaphaelBRUXELLES BIG BRACKETS3:00:311:35 38.1674
39.1626LIÉGEOIS JulienTEAM LIÉGEOIS3:00:321:35 38.1675
40.1714LOOP RomainCHALLENGE BICYCLIC3:01:351:35 37.9476
41.1833VAN LOOY ThomasPHC3:10:351:40 36.1484
42.1656TERLINDEN-RUHL LucasBRUSSELS BIG BRACKETS3:10:381:40 36.1386
43.1702SCHYNS DavidCHALLENGE BICYCLIC3:10:511:40 36.0990
44.1625LIEGEOIS ArnaudECW (TORPÉDO)3:10:531:40 36.0995
45.1723MARDEEN BenjaminCHALLENGE BICYCLIC3:10:531:40 36.0997
46.1672GENREITH JeremyCHALLENGE BICYCLIC3:10:531:40 36.0998
47.1828WUIDAR GillesCHALLENGE BICYCLIC3:10:551:40 36.08109
48.1633MATHONET CorentinCHALLENGE BICYCLIC3:10:561:40 36.08113
49.1694FELLER Gil3:10:561:40 36.08115
50.1610HUBERT AndréENTENTE CYCLISTE DE WALLO3:10:571:40 36.07117
51.1719STOCLET ThomasCHALLENGE BICYCLIC3:11:081:40 36.04121
52.1551VAN ASSCHE Gilles3:11:101:40 36.03124
53.1827JOCKIN Gilles3:11:281:41 35.98129
54.1568BAUS Jordy3:11:301:41 35.97130
55.1628MAHAUX Jonathan3:11:311:41 35.97131
56.1837LEJOLY PierreCHALLENGE BICYCLIC3:11:511:41 35.90135
57.1661VANDEN BERGHE ArnaudCC CHEVIGNY3:13:441:42 35.56141
58.1598FREISINGER ThomasBRUSSELS BIG BRACKETS RAC3:13:501:42 35.54142
59.1841CARA BorisTEAM LUXBIKES HOUFFALIZE3:22:301:46 34.02149
60.1809HEIDRICH Benjamin3:22:301:46 34.02150
61.1663VANDERDONCK JasonENTENTE CYCLISTE DE WALLO3:24:181:47 33.72157
62.1624LEVAUX AntoineENTENTE CYCLISTE DE WALLO3:24:191:47 33.71159
63.1729CORNET QuentinCHALLENGE BICYCLIC3:24:201:47 33.71160
64.1831GREISCH YovanWINDOSE HOUFFALIZE3:24:201:47 33.71161
65.1830BONHOMME CedricPMX3:24:201:47 33.71162
66.1700DAVID Gilles3:24:201:47 33.71163
67.1580CHAUMONT MartinENTENTE CYCLISTE DE WALLO3:25:221:48 33.54176
68.1834DE MEESTER ValentinAMAREEQ3:25:481:48 33.47178
69.1826GILLES VivianCH3:25:501:48 33.47179
70.1839PIERGENTILI Luca3:26:071:48 33.42182
71.1810PERSURIC SebastianTEAM X3M SNOOZE3:26:531:49 33.29183
72.1650SCHYNS SébastienBOONEN CYCLING TEAM3:30:291:51 32.73186
73.1822COLLARD CyprienCHALLENGE BICYCLIC3:35:271:53 31.97190
74.1730NEYENS SeppePHC3:35:281:53 31.97191
75.1649SCHOEFS JulienCHALLENGE BICYCLIC3:36:101:53 31.86197
76.1520MOLLE Jean LouisULTRA CYCLING TEAM3:36:231:54 31.83199
77.1727WILMOTTE Pierre Francois3:42:001:57 31.03207
78.1725KOFFI GeorgesCHALLENGE BICYCLIC3:42:361:57 30.94210
79.1510VAN ERP XavierDECATHLON ARLON3:42:421:57 30.93214
80.1509LOMBAERT MatthieuCRABBE TOITURES-CC CHEVIG3:44:301:58 30.68216
81.1736QUERIMI AurelBOONEN CYCLING TEAM3:59:482:06 28.73222
82.1608HOUBRECHTS ChristianGCV4:03:072:08 28.33223
83.1726HASPESLAGH WillemPHC4:04:422:08 28.15225
84.1817SCHAECK ArthurBAROUDEURS4:13:382:13 27.16236
85.1543PONCELET Marvon4:19:192:16 26.56240
86.784BERCK Parick4:19:572:16 26.50241
DNF1554MARTHE Jonathan
DNF1552SPEELERS Simon
DNF1522VAN WINGLSE Stein
DNF: abandon; DSQ: disqualifié; Vitesse en km/h
Page: [1]